Annabella, Utah
Current Conditions -  °F | °C
As of 3:55 AM on Friday 24 Oct 2014 (Local Time) from KDTA Reporting Station
Clear Clear  
Wind Chill: 58°   Ceiling: Unl
Heat Index: 58°   Visibility: 10mi
Dew Point: 28°   Wind: 13mph
Humidity: 32%   Direction: 170°S
Pressure: 30.15"   Gusts: NA
Location:  38.71°N, 112.06°W
Report Text: KDTA 240955Z AUTO 17011KT 10SM CLR 14/M02 A3015 RMK AO1 T01431024
Loading
Personal Weather Stations






























Interactive Weather Map
Tropical Storm Tracking
New forecast layout! Learn more

10-Day Weather Forecast

Advertisements
Track Severe Weather on mobile